AirNav   Everest Fuels
 
 1475 users online  

58MO Mercy Hospital Jefferson Heliport
Crystal City, Missouri, USA

GOING TO CRYSTAL CITY?


FAA INFORMATION EFFECTIVE 28 FEBRUARY 2019

Location

FAA Identifier: 58MO
Lat/Long: 38-11-44.0100N / 090-23-36.1800W
38-11.733500N / 090-23.603000W
38.1955583 / -90.3933833
(estimated)
Elevation: 435 ft. / 133 m (estimated)
Variation: 02E (1985)
From city: 1 mile S of CRYSTAL CITY, MO
Time zone: UTC -6 (UTC -5 during Daylight Saving Time)
Zip code: 63028

Heliport Operations

Heliport use: Private use, MEDICAL.
Activation date: 07/1989
Control tower: no
ARTCC: KANSAS CITY CENTER
FSS: SAINT LOUIS FLIGHT SERVICE STATION
Attendance: CONTINUOUS
Wind indicator: yes
Segmented circle: yes

Nearby radio navigation aids

VOR radial/distance  VOR name  Freq  Var
FAMr345/32.2FARMINGTON VORTAC115.7001E
CSXr183/33.5CARDINAL VOR/DME116.4500E
TOYr210/39.5TROY VORTAC116.0004E

Heliport Services

Runway Information

Helipad H1

Dimensions: 60 x 60 ft. / 18 x 18 m
Surface: concrete
Latitude: 38-11.733500N
Longitude: 090-23.603000W
Elevation: 435.0 ft.
Traffic pattern: leftleft

Heliport Ownership and Management from official FAA records

Ownership: Privately-owned
Owner: JEFFERSON REGIONAL MEDICAL CENTER
HWY 61 SOUTH
CRYSTAL CITY, MO 63019
Phone 314-933-1000
Manager: RICK MORAVEC
BOX 350
CRYSTAL CITY, MO 63019
Phone 314-933-1000
DIRECTOR OF FACILITIES

Heliport Operational Statistics

Aircraft based on the field: 1
Helicopters: 1
    

Additional Remarks

A52-H1 70' BLDG 75' NORTH; 30' TREES 100' EAST & SOUTH.
FOR CD CTC ST LOUIS APCH AT 314-890-1018.

Instrument Procedures

There are no published instrument procedures at 58MO.

Some nearby airports with instrument procedures:

KFES - Festus Memorial Airport (0 nm E)
8WC - Washington County Airport (23 nm SW)
KCPS - St Louis Downtown Airport (25 nm NE)
KFAM - Farmington Regional Airport (26 nm S)
KSUS - Spirit of St Louis Airport (31 nm NW)
 
Loc | Ops | Rwys | IFR | FBO | Links
Com | Nav | Svcs | Stats | Notes

Kansas City Aviation Department
 
Area around 58MO (Mercy Hospital Jefferson Heliport)
 
Road maps at: MapQuest Bing Google
 
Aerial photo
No photo
 
Sectional chart

 
Airport distance calculator
Flying to Mercy Hospital Jefferson Heliport? Find the distance to fly.

From to 58MO

Sunrise and sunset
Times for 25-Mar-2019
 Local
(UTC-5)
 Zulu
(UTC)
Morning civil twilight06:3211:32
Sunrise06:5811:58
Sunset19:1700:17
Evening civil twilight19:4300:43

Current date and time
Zulu (UTC)  25-Mar-2019 15:33:21
Local (UTC-5)  25-Mar-2019 10:33:21
 
METAR
KCPS 
25nm NE 
251453Z 02014KT 9SM OVC013 07/04 A3015 RMK AO2 SLP209 T00670039 51032
KFAM 
26nm S 
251518Z AUTO 35009G14KT 2SM -RA BR OVC005 08/07 A3012 RMK AO2 P0000
KSUS 
30nm NW 
251454Z 36011KT 8SM OVC011 07/04 A3016 RMK AO2 SLP216 T00670039 51032
KPCD 
32nm SE 
251515Z AUTO 36013G18KT 7SM OVC009 08/07 A3010 RMK AO2 T00800067
KSAR 
33nm E 
251515Z AUTO 35012G20KT 7SM OVC007 06/06 A3012 RMK AO2 T00600060
KBLV 
33nm NE 
251431Z AUTO 02011G17KT 10SM OVC010 06/04 A3011 RMK AO2 CIG 009 RWY14L CIG 009 RWY32L CIG 009 RWY32R SLP201 $
KSTL 
33nm N 
251504Z 35009KT 10SM SCT012 OVC024 06/03 A3016 RMK AO2 T00560028
KFYG 
37nm NW 
251515Z AUTO 35010KT 8SM OVC013 07/05 A3017 RMK AO2
KSET 
44nm N 
251454Z AUTO 02010KT 10SM BKN031 OVC045 06/03 A3017 RMK AO2 SLP217 T00610033 51032
KALN 
45nm N 
251450Z 36010KT 10SM SCT014 BKN019 OVC030 05/04 A3016
TAF
KCPS 
25nm NE 
251133Z 2512/2612 36011G19KT P6SM VCSH OVC008 TEMPO 2512/2514 4SM -DZ BR OVC006 FM251700 01012G19KT P6SM BKN018 FM251900 01012G18KT P6SM BKN025 FM252200 36010KT P6SM SCT035
KSUS 
30nm NW 
251133Z 2512/2612 01010G19KT P6SM OVC007 TEMPO 2512/2514 4SM -DZ BR OVC005 FM251600 01011G19KT P6SM OVC016 FM251900 01010G16KT P6SM BKN025 FM252200 02006KT P6SM SCT035
NOTAMs
Click for the latest NOTAMs
NOTAMs are issued by the DoD/FAA and will open in a separate window not controlled by AirNav.

 

 
 

Would you like to see your business listed on this page?

 If your business provides an interesting product or service to pilots, flight crews, aircraft, or users of the Mercy Hospital Jefferson Heliport, you should consider listing it here.  To start the listing process, click on the button below
 
Add a business
 

Other Pages about Mercy Hospital Jefferson Heliport

Update a link
 
Copyright © AirNav, LLC. All rights reserved. Privacy Policy  Contact